sensor_id;sensor_type;location;lat;lon;timestamp;P1;durP1;ratioP1;P2;durP2;ratioP2
9042;SDS011;4556;49.150;8.808;2023-02-21T00:01:54;3.27;;;2.40;;
9042;SDS011;4556;49.150;8.808;2023-02-21T00:04:38;5.33;;;3.00;;
9042;SDS011;4556;49.150;8.808;2023-02-21T00:07:23;7.73;;;2.93;;
9042;SDS011;4556;49.150;8.808;2023-02-21T00:10:07;4.07;;;2.60;;
9042;SDS011;4556;49.150;8.808;2023-02-21T00:12:54;7.50;;;2.43;;
9042;SDS011;4556;49.150;8.808;2023-02-21T00:15:38;6.17;;;3.00;;
9042;SDS011;4556;49.150;8.808;2023-02-21T00:18:24;5.43;;;2.47;;
9042;SDS011;4556;49.150;8.808;2023-02-21T00:21:08;5.60;;;2.40;;
9042;SDS011;4556;49.150;8.808;2023-02-21T00:23:53;6.20;;;2.53;;
9042;SDS011;4556;49.150;8.808;2023-02-21T00:26:37;5.33;;;2.53;;
9042;SDS011;4556;49.150;8.808;2023-02-21T00:29:24;5.80;;;2.90;;
9042;SDS011;4556;49.150;8.808;2023-02-21T00:32:09;6.70;;;2.80;;
9042;SDS011;4556;49.150;8.808;2023-02-21T00:34:55;5.10;;;2.67;;
9042;SDS011;4556;49.150;8.808;2023-02-21T00:37:39;3.93;;;2.40;;
9042;SDS011;4556;49.150;8.808;2023-02-21T00:40:23;5.97;;;2.67;;
9042;SDS011;4556;49.150;8.808;2023-02-21T00:43:08;6.27;;;2.60;;
9042;SDS011;4556;49.150;8.808;2023-02-21T00:45:53;4.17;;;2.40;;
9042;SDS011;4556;49.150;8.808;2023-02-21T00:48:39;8.13;;;2.80;;
9042;SDS011;4556;49.150;8.808;2023-02-21T00:51:25;5.30;;;2.83;;
9042;SDS011;4556;49.150;8.808;2023-02-21T00:54:10;4.57;;;2.80;;
9042;SDS011;4556;49.150;8.808;2023-02-21T00:56:54;4.40;;;2.77;;
9042;SDS011;4556;49.150;8.808;2023-02-21T00:59:41;4.53;;;2.80;;
9042;SDS011;4556;49.150;8.808;2023-02-21T01:02:25;5.43;;;2.70;;
9042;SDS011;4556;49.150;8.808;2023-02-21T01:05:09;8.80;;;3.17;;
9042;SDS011;4556;49.150;8.808;2023-02-21T01:07:55;5.73;;;2.47;;
9042;SDS011;4556;49.150;8.808;2023-02-21T01:10:39;6.07;;;2.50;;
9042;SDS011;4556;49.150;8.808;2023-02-21T01:13:23;5.00;;;2.40;;
9042;SDS011;4556;49.150;8.808;2023-02-21T01:16:08;4.13;;;2.40;;
9042;SDS011;4556;49.150;8.808;2023-02-21T01:18:52;6.20;;;2.73;;
9042;SDS011;4556;49.150;8.808;2023-02-21T01:21:37;4.83;;;2.57;;
9042;SDS011;4556;49.150;8.808;2023-02-21T01:24:22;4.67;;;2.20;;
9042;SDS011;4556;49.150;8.808;2023-02-21T01:27:07;9.20;;;2.73;;
9042;SDS011;4556;49.150;8.808;2023-02-21T01:29:51;4.57;;;2.80;;
9042;SDS011;4556;49.150;8.808;2023-02-21T01:32:35;5.37;;;2.57;;
9042;SDS011;4556;49.150;8.808;2023-02-21T01:35:22;5.67;;;2.40;;
9042;SDS011;4556;49.150;8.808;2023-02-21T01:38:09;4.17;;;2.23;;
9042;SDS011;4556;49.150;8.808;2023-02-21T01:40:55;4.83;;;2.40;;
9042;SDS011;4556;49.150;8.808;2023-02-21T01:43:56;4.83;;;2.23;;
9042;SDS011;4556;49.150;8.808;2023-02-21T01:46:42;4.43;;;2.27;;
9042;SDS011;4556;49.150;8.808;2023-02-21T01:49:26;5.70;;;2.37;;
9042;SDS011;4556;49.150;8.808;2023-02-21T01:52:12;5.93;;;2.50;;
9042;SDS011;4556;49.150;8.808;2023-02-21T01:54:56;5.63;;;2.30;;
9042;SDS011;4556;49.150;8.808;2023-02-21T01:57:42;4.43;;;2.10;;
9042;SDS011;4556;49.150;8.808;2023-02-21T02:00:28;6.83;;;2.30;;
9042;SDS011;4556;49.150;8.808;2023-02-21T02:03:15;4.47;;;2.40;;
9042;SDS011;4556;49.150;8.808;2023-02-21T02:06:02;4.43;;;2.20;;
9042;SDS011;4556;49.150;8.808;2023-02-21T02:08:49;7.20;;;2.60;;
9042;SDS011;4556;49.150;8.808;2023-02-21T02:11:37;4.63;;;2.23;;
9042;SDS011;4556;49.150;8.808;2023-02-21T02:17:20;4.17;;;2.50;;
9042;SDS011;4556;49.150;8.808;2023-02-21T02:20:10;4.30;;;2.17;;
9042;SDS011;4556;49.150;8.808;2023-02-21T02:32:54;4.83;;;2.53;;
9042;SDS011;4556;49.150;8.808;2023-02-21T02:35:36;4.20;;;2.23;;
9042;SDS011;4556;49.150;8.808;2023-02-21T02:38:10;4.17;;;2.53;;
9042;SDS011;4556;49.150;8.808;2023-02-21T02:40:45;7.43;;;2.63;;
9042;SDS011;4556;49.150;8.808;2023-02-21T02:43:23;5.70;;;2.43;;
9042;SDS011;4556;49.150;8.808;2023-02-21T02:45:55;6.27;;;2.77;;
9042;SDS011;4556;49.150;8.808;2023-02-21T02:48:27;5.63;;;2.73;;
9042;SDS011;4556;49.150;8.808;2023-02-21T02:51:00;6.47;;;2.93;;
9042;SDS011;4556;49.150;8.808;2023-02-21T02:53:31;6.03;;;2.80;;
9042;SDS011;4556;49.150;8.808;2023-02-21T02:56:00;3.70;;;2.40;;
9042;SDS011;4556;49.150;8.808;2023-02-21T02:58:29;6.77;;;2.43;;
9042;SDS011;4556;49.150;8.808;2023-02-21T03:01:04;5.80;;;2.40;;
9042;SDS011;4556;49.150;8.808;2023-02-21T03:03:50;3.60;;;2.50;;
9042;SDS011;4556;49.150;8.808;2023-02-21T03:06:32;4.43;;;2.60;;
9042;SDS011;4556;49.150;8.808;2023-02-21T03:09:03;4.83;;;2.53;;
9042;SDS011;4556;49.150;8.808;2023-02-21T03:11:34;5.43;;;2.67;;
9042;SDS011;4556;49.150;8.808;2023-02-21T03:14:08;5.53;;;2.80;;
9042;SDS011;4556;49.150;8.808;2023-02-21T03:16:43;6.03;;;2.83;;
9042;SDS011;4556;49.150;8.808;2023-02-21T03:19:14;4.90;;;2.50;;
9042;SDS011;4556;49.150;8.808;2023-02-21T03:21:45;4.87;;;2.53;;
9042;SDS011;4556;49.150;8.808;2023-02-21T03:24:15;5.60;;;2.50;;
9042;SDS011;4556;49.150;8.808;2023-02-21T03:26:45;5.47;;;2.43;;
9042;SDS011;4556;49.150;8.808;2023-02-21T03:29:16;5.80;;;2.57;;
9042;SDS011;4556;49.150;8.808;2023-02-21T03:31:45;5.70;;;2.40;;
9042;SDS011;4556;49.150;8.808;2023-02-21T03:34:15;4.67;;;2.63;;
9042;SDS011;4556;49.150;8.808;2023-02-21T03:36:42;3.90;;;2.37;;
9042;SDS011;4556;49.150;8.808;2023-02-21T03:39:12;4.97;;;2.67;;
9042;SDS011;4556;49.150;8.808;2023-02-21T03:41:39;4.13;;;2.57;;
9042;SDS011;4556;49.150;8.808;2023-02-21T03:44:05;5.60;;;3.00;;
9042;SDS011;4556;49.150;8.808;2023-02-21T03:46:33;8.30;;;2.63;;
9042;SDS011;4556;49.150;8.808;2023-02-21T03:49:00;4.93;;;2.70;;
9042;SDS011;4556;49.150;8.808;2023-02-21T03:51:27;3.80;;;2.60;;
9042;SDS011;4556;49.150;8.808;2023-02-21T03:53:55;4.50;;;2.70;;
9042;SDS011;4556;49.150;8.808;2023-02-21T03:56:22;5.93;;;2.93;;
9042;SDS011;4556;49.150;8.808;2023-02-21T03:58:49;4.03;;;2.60;;
9042;SDS011;4556;49.150;8.808;2023-02-21T04:01:16;6.17;;;2.90;;
9042;SDS011;4556;49.150;8.808;2023-02-21T04:03:43;5.07;;;2.77;;
9042;SDS011;4556;49.150;8.808;2023-02-21T04:06:10;7.77;;;2.80;;
9042;SDS011;4556;49.150;8.808;2023-02-21T04:08:37;5.40;;;2.70;;
9042;SDS011;4556;49.150;8.808;2023-02-21T04:11:06;6.10;;;3.00;;
9042;SDS011;4556;49.150;8.808;2023-02-21T04:13:33;5.20;;;2.90;;
9042;SDS011;4556;49.150;8.808;2023-02-21T04:15:59;3.37;;;2.53;;
9042;SDS011;4556;49.150;8.808;2023-02-21T04:18:27;4.77;;;3.17;;
9042;SDS011;4556;49.150;8.808;2023-02-21T04:20:53;3.60;;;2.47;;
9042;SDS011;4556;49.150;8.808;2023-02-21T04:23:20;6.17;;;2.90;;
9042;SDS011;4556;49.150;8.808;2023-02-21T04:25:48;5.63;;;3.10;;
9042;SDS011;4556;49.150;8.808;2023-02-21T04:28:16;4.67;;;2.80;;
9042;SDS011;4556;49.150;8.808;2023-02-21T04:30:43;5.20;;;3.03;;
9042;SDS011;4556;49.150;8.808;2023-02-21T04:33:10;7.60;;;2.93;;
9042;SDS011;4556;49.150;8.808;2023-02-21T04:35:37;3.70;;;2.43;;
9042;SDS011;4556;49.150;8.808;2023-02-21T04:38:04;4.47;;;2.80;;
9042;SDS011;4556;49.150;8.808;2023-02-21T04:40:30;4.77;;;2.80;;
9042;SDS011;4556;49.150;8.808;2023-02-21T04:42:57;6.80;;;3.27;;
9042;SDS011;4556;49.150;8.808;2023-02-21T04:45:25;6.03;;;2.70;;
9042;SDS011;4556;49.150;8.808;2023-02-21T04:47:54;5.20;;;2.70;;
9042;SDS011;4556;49.150;8.808;2023-02-21T04:50:21;6.33;;;2.93;;
9042;SDS011;4556;49.150;8.808;2023-02-21T04:52:48;5.00;;;2.90;;
9042;SDS011;4556;49.150;8.808;2023-02-21T04:55:15;4.53;;;2.80;;
9042;SDS011;4556;49.150;8.808;2023-02-21T04:57:42;5.87;;;3.10;;
9042;SDS011;4556;49.150;8.808;2023-02-21T05:00:09;5.50;;;3.27;;
9042;SDS011;4556;49.150;8.808;2023-02-21T05:02:42;4.63;;;2.70;;
9042;SDS011;4556;49.150;8.808;2023-02-21T05:05:09;9.63;;;3.07;;
9042;SDS011;4556;49.150;8.808;2023-02-21T05:07:37;5.87;;;3.33;;
9042;SDS011;4556;49.150;8.808;2023-02-21T05:10:04;5.50;;;3.10;;
9042;SDS011;4556;49.150;8.808;2023-02-21T05:12:32;7.07;;;2.93;;
9042;SDS011;4556;49.150;8.808;2023-02-21T05:14:59;4.40;;;2.90;;
9042;SDS011;4556;49.150;8.808;2023-02-21T05:17:25;5.83;;;3.20;;
9042;SDS011;4556;49.150;8.808;2023-02-21T05:19:54;4.47;;;3.20;;
9042;SDS011;4556;49.150;8.808;2023-02-21T05:22:21;7.17;;;3.37;;
9042;SDS011;4556;49.150;8.808;2023-02-21T05:24:48;5.83;;;2.80;;
9042;SDS011;4556;49.150;8.808;2023-02-21T05:27:16;7.13;;;3.17;;
9042;SDS011;4556;49.150;8.808;2023-02-21T05:29:45;5.03;;;3.33;;
9042;SDS011;4556;49.150;8.808;2023-02-21T05:32:13;6.90;;;3.30;;
9042;SDS011;4556;49.150;8.808;2023-02-21T05:34:40;4.10;;;3.23;;
9042;SDS011;4556;49.150;8.808;2023-02-21T05:37:12;4.70;;;3.50;;
9042;SDS011;4556;49.150;8.808;2023-02-21T05:39:39;8.63;;;3.57;;
9042;SDS011;4556;49.150;8.808;2023-02-21T05:42:06;5.20;;;3.17;;
9042;SDS011;4556;49.150;8.808;2023-02-21T05:44:33;6.07;;;3.40;;
9042;SDS011;4556;49.150;8.808;2023-02-21T05:47:00;6.77;;;3.97;;
9042;SDS011;4556;49.150;8.808;2023-02-21T05:49:28;5.80;;;3.70;;
9042;SDS011;4556;49.150;8.808;2023-02-21T05:51:54;4.90;;;3.10;;
9042;SDS011;4556;49.150;8.808;2023-02-21T05:54:23;4.77;;;3.10;;
9042;SDS011;4556;49.150;8.808;2023-02-21T05:56:50;5.73;;;4.00;;
9042;SDS011;4556;49.150;8.808;2023-02-21T05:59:17;5.43;;;4.00;;
9042;SDS011;4556;49.150;8.808;2023-02-21T06:01:46;5.80;;;3.37;;
9042;SDS011;4556;49.150;8.808;2023-02-21T06:04:14;5.57;;;3.33;;
9042;SDS011;4556;49.150;8.808;2023-02-21T06:06:41;5.53;;;3.30;;
9042;SDS011;4556;49.150;8.808;2023-02-21T06:09:08;5.93;;;3.50;;
9042;SDS011;4556;49.150;8.808;2023-02-21T06:11:38;7.80;;;3.90;;
9042;SDS011;4556;49.150;8.808;2023-02-21T06:14:06;6.63;;;3.93;;
9042;SDS011;4556;49.150;8.808;2023-02-21T06:16:34;4.57;;;3.43;;
9042;SDS011;4556;49.150;8.808;2023-02-21T06:19:03;5.27;;;3.63;;
9042;SDS011;4556;49.150;8.808;2023-02-21T06:21:32;5.53;;;3.63;;
9042;SDS011;4556;49.150;8.808;2023-02-21T06:24:00;4.33;;;3.20;;
9042;SDS011;4556;49.150;8.808;2023-02-21T06:26:27;6.90;;;3.93;;
9042;SDS011;4556;49.150;8.808;2023-02-21T06:28:58;5.60;;;3.60;;
9042;SDS011;4556;49.150;8.808;2023-02-21T06:31:25;5.30;;;3.70;;
9042;SDS011;4556;49.150;8.808;2023-02-21T06:33:52;6.37;;;3.93;;
9042;SDS011;4556;49.150;8.808;2023-02-21T06:36:20;5.20;;;3.43;;
9042;SDS011;4556;49.150;8.808;2023-02-21T06:38:49;5.83;;;3.97;;
9042;SDS011;4556;49.150;8.808;2023-02-21T06:41:18;6.77;;;3.67;;
9042;SDS011;4556;49.150;8.808;2023-02-21T06:43:48;5.43;;;4.27;;
9042;SDS011;4556;49.150;8.808;2023-02-21T06:46:17;6.57;;;3.50;;
9042;SDS011;4556;49.150;8.808;2023-02-21T06:48:45;4.73;;;3.73;;
9042;SDS011;4556;49.150;8.808;2023-02-21T06:51:13;6.43;;;3.87;;
9042;SDS011;4556;49.150;8.808;2023-02-21T06:53:40;4.70;;;3.50;;
9042;SDS011;4556;49.150;8.808;2023-02-21T06:56:08;6.30;;;4.17;;
9042;SDS011;4556;49.150;8.808;2023-02-21T06:58:35;5.80;;;4.03;;
9042;SDS011;4556;49.150;8.808;2023-02-21T07:01:02;6.20;;;4.20;;
9042;SDS011;4556;49.150;8.808;2023-02-21T07:03:31;6.93;;;4.13;;
9042;SDS011;4556;49.150;8.808;2023-02-21T07:05:57;6.97;;;4.40;;
9042;SDS011;4556;49.150;8.808;2023-02-21T07:08:24;5.73;;;3.70;;
9042;SDS011;4556;49.150;8.808;2023-02-21T07:10:51;5.57;;;3.97;;
9042;SDS011;4556;49.150;8.808;2023-02-21T07:13:18;6.00;;;4.03;;
9042;SDS011;4556;49.150;8.808;2023-02-21T07:15:46;6.33;;;4.00;;
9042;SDS011;4556;49.150;8.808;2023-02-21T07:18:12;6.83;;;4.10;;
9042;SDS011;4556;49.150;8.808;2023-02-21T07:20:41;6.00;;;3.93;;
9042;SDS011;4556;49.150;8.808;2023-02-21T07:23:08;6.73;;;4.20;;
9042;SDS011;4556;49.150;8.808;2023-02-21T07:25:35;8.23;;;3.93;;
9042;SDS011;4556;49.150;8.808;2023-02-21T07:28:02;7.40;;;4.03;;
9042;SDS011;4556;49.150;8.808;2023-02-21T07:30:29;6.50;;;4.03;;
9042;SDS011;4556;49.150;8.808;2023-02-21T07:32:56;6.40;;;4.30;;
9042;SDS011;4556;49.150;8.808;2023-02-21T07:35:24;5.03;;;3.87;;
9042;SDS011;4556;49.150;8.808;2023-02-21T07:37:52;6.37;;;3.87;;
9042;SDS011;4556;49.150;8.808;2023-02-21T07:40:19;6.17;;;3.70;;
9042;SDS011;4556;49.150;8.808;2023-02-21T07:42:46;5.43;;;3.90;;
9042;SDS011;4556;49.150;8.808;2023-02-21T07:45:14;7.93;;;4.03;;
9042;SDS011;4556;49.150;8.808;2023-02-21T07:47:43;6.93;;;4.20;;
9042;SDS011;4556;49.150;8.808;2023-02-21T07:50:11;8.33;;;4.87;;
9042;SDS011;4556;49.150;8.808;2023-02-21T07:52:38;8.23;;;5.00;;
9042;SDS011;4556;49.150;8.808;2023-02-21T07:55:07;9.27;;;5.00;;
9042;SDS011;4556;49.150;8.808;2023-02-21T07:57:36;10.37;;;6.53;;
9042;SDS011;4556;49.150;8.808;2023-02-21T08:00:03;11.67;;;8.07;;
9042;SDS011;4556;49.150;8.808;2023-02-21T08:02:31;9.90;;;6.70;;
9042;SDS011;4556;49.150;8.808;2023-02-21T08:04:58;10.67;;;7.17;;
9042;SDS011;4556;49.150;8.808;2023-02-21T08:07:25;10.87;;;7.37;;
9042;SDS011;4556;49.150;8.808;2023-02-21T08:09:52;10.67;;;7.50;;
9042;SDS011;4556;49.150;8.808;2023-02-21T08:12:20;11.57;;;6.87;;
9042;SDS011;4556;49.150;8.808;2023-02-21T08:14:47;13.07;;;8.90;;
9042;SDS011;4556;49.150;8.808;2023-02-21T08:17:14;19.17;;;13.23;;
9042;SDS011;4556;49.150;8.808;2023-02-21T08:19:41;15.70;;;10.23;;
9042;SDS011;4556;49.150;8.808;2023-02-21T08:22:08;8.97;;;7.30;;
9042;SDS011;4556;49.150;8.808;2023-02-21T08:24:36;11.33;;;6.23;;
9042;SDS011;4556;49.150;8.808;2023-02-21T08:27:03;6.67;;;5.20;;
9042;SDS011;4556;49.150;8.808;2023-02-21T08:29:31;8.13;;;5.27;;
9042;SDS011;4556;49.150;8.808;2023-02-21T08:31:58;8.00;;;5.50;;
9042;SDS011;4556;49.150;8.808;2023-02-21T08:34:25;6.40;;;5.40;;
9042;SDS011;4556;49.150;8.808;2023-02-21T08:36:54;8.63;;;5.37;;
9042;SDS011;4556;49.150;8.808;2023-02-21T08:39:23;15.03;;;5.60;;
9042;SDS011;4556;49.150;8.808;2023-02-21T08:41:54;10.63;;;5.40;;
9042;SDS011;4556;49.150;8.808;2023-02-21T08:44:21;6.93;;;5.00;;
9042;SDS011;4556;49.150;8.808;2023-02-21T08:46:49;12.20;;;5.63;;
9042;SDS011;4556;49.150;8.808;2023-02-21T08:49:16;7.47;;;5.10;;
9042;SDS011;4556;49.150;8.808;2023-02-21T08:51:43;7.53;;;5.63;;
9042;SDS011;4556;49.150;8.808;2023-02-21T08:54:11;8.87;;;5.37;;
9042;SDS011;4556;49.150;8.808;2023-02-21T08:56:38;8.17;;;5.20;;
9042;SDS011;4556;49.150;8.808;2023-02-21T08:59:05;9.40;;;5.90;;
9042;SDS011;4556;49.150;8.808;2023-02-21T09:01:34;7.00;;;4.90;;
9042;SDS011;4556;49.150;8.808;2023-02-21T09:04:03;8.13;;;5.07;;
9042;SDS011;4556;49.150;8.808;2023-02-21T09:06:31;8.40;;;5.40;;
9042;SDS011;4556;49.150;8.808;2023-02-21T09:08:59;8.37;;;5.27;;
9042;SDS011;4556;49.150;8.808;2023-02-21T09:11:26;7.93;;;5.33;;
9042;SDS011;4556;49.150;8.808;2023-02-21T09:13:52;8.50;;;5.20;;
9042;SDS011;4556;49.150;8.808;2023-02-21T09:16:19;7.67;;;5.33;;
9042;SDS011;4556;49.150;8.808;2023-02-21T09:18:52;8.37;;;5.37;;
9042;SDS011;4556;49.150;8.808;2023-02-21T09:21:22;6.43;;;4.77;;
9042;SDS011;4556;49.150;8.808;2023-02-21T09:23:51;8.63;;;5.40;;
9042;SDS011;4556;49.150;8.808;2023-02-21T09:26:19;8.73;;;5.00;;
9042;SDS011;4556;49.150;8.808;2023-02-21T09:28:48;9.33;;;5.30;;
9042;SDS011;4556;49.150;8.808;2023-02-21T09:31:15;8.00;;;5.63;;
9042;SDS011;4556;49.150;8.808;2023-02-21T09:33:42;10.13;;;5.50;;
9042;SDS011;4556;49.150;8.808;2023-02-21T09:36:09;10.67;;;5.60;;
9042;SDS011;4556;49.150;8.808;2023-02-21T09:38:38;6.57;;;5.07;;
9042;SDS011;4556;49.150;8.808;2023-02-21T09:41:06;7.73;;;5.03;;
9042;SDS011;4556;49.150;8.808;2023-02-21T09:43:36;11.60;;;5.83;;
9042;SDS011;4556;49.150;8.808;2023-02-21T09:46:06;8.50;;;5.03;;
9042;SDS011;4556;49.150;8.808;2023-02-21T09:48:38;11.37;;;5.83;;
9042;SDS011;4556;49.150;8.808;2023-02-21T09:51:07;8.53;;;5.80;;
9042;SDS011;4556;49.150;8.808;2023-02-21T09:53:37;10.23;;;6.40;;
9042;SDS011;4556;49.150;8.808;2023-02-21T09:56:11;8.50;;;6.20;;
9042;SDS011;4556;49.150;8.808;2023-02-21T09:58:52;9.50;;;5.60;;
9042;SDS011;4556;49.150;8.808;2023-02-21T10:01:21;7.60;;;6.00;;
9042;SDS011;4556;49.150;8.808;2023-02-21T10:03:56;8.20;;;6.13;;
9042;SDS011;4556;49.150;8.808;2023-02-21T10:06:34;10.57;;;5.43;;
9042;SDS011;4556;49.150;8.808;2023-02-21T10:09:12;10.37;;;5.77;;
9042;SDS011;4556;49.150;8.808;2023-02-21T10:11:49;9.63;;;5.40;;
9042;SDS011;4556;49.150;8.808;2023-02-21T10:14:26;10.17;;;6.00;;
9042;SDS011;4556;49.150;8.808;2023-02-21T10:17:02;10.37;;;6.23;;
9042;SDS011;4556;49.150;8.808;2023-02-21T10:19:37;10.50;;;6.17;;
9042;SDS011;4556;49.150;8.808;2023-02-21T10:22:10;15.00;;;6.50;;
9042;SDS011;4556;49.150;8.808;2023-02-21T10:24:41;9.27;;;6.40;;
9042;SDS011;4556;49.150;8.808;2023-02-21T10:27:11;8.87;;;5.97;;
9042;SDS011;4556;49.150;8.808;2023-02-21T10:29:42;7.07;;;5.60;;
9042;SDS011;4556;49.150;8.808;2023-02-21T10:32:13;10.53;;;5.87;;
9042;SDS011;4556;49.150;8.808;2023-02-21T10:34:40;7.87;;;5.37;;
9042;SDS011;4556;49.150;8.808;2023-02-21T10:37:14;7.37;;;5.67;;
9042;SDS011;4556;49.150;8.808;2023-02-21T10:39:55;9.33;;;5.43;;
9042;SDS011;4556;49.150;8.808;2023-02-21T10:42:27;8.50;;;5.33;;
9042;SDS011;4556;49.150;8.808;2023-02-21T10:44:57;8.70;;;5.77;;
9042;SDS011;4556;49.150;8.808;2023-02-21T10:47:28;7.53;;;5.40;;
9042;SDS011;4556;49.150;8.808;2023-02-21T10:50:00;8.37;;;5.43;;
9042;SDS011;4556;49.150;8.808;2023-02-21T10:52:33;9.47;;;5.40;;
9042;SDS011;4556;49.150;8.808;2023-02-21T10:55:05;9.57;;;5.63;;
9042;SDS011;4556;49.150;8.808;2023-02-21T10:57:40;7.63;;;5.47;;
9042;SDS011;4556;49.150;8.808;2023-02-21T11:00:09;9.53;;;5.60;;
9042;SDS011;4556;49.150;8.808;2023-02-21T11:02:49;7.40;;;5.10;;
9042;SDS011;4556;49.150;8.808;2023-02-21T11:05:20;9.20;;;5.33;;
9042;SDS011;4556;49.150;8.808;2023-02-21T11:07:56;7.60;;;5.47;;
9042;SDS011;4556;49.150;8.808;2023-02-21T11:10:32;8.47;;;5.57;;
9042;SDS011;4556;49.150;8.808;2023-02-21T11:13:01;9.70;;;4.80;;
9042;SDS011;4556;49.150;8.808;2023-02-21T11:15:29;8.43;;;5.23;;
9042;SDS011;4556;49.150;8.808;2023-02-21T11:18:04;7.93;;;5.00;;
9042;SDS011;4556;49.150;8.808;2023-02-21T11:20:37;7.30;;;5.00;;
9042;SDS011;4556;49.150;8.808;2023-02-21T11:23:03;9.13;;;5.20;;
9042;SDS011;4556;49.150;8.808;2023-02-21T11:25:43;9.73;;;5.70;;
9042;SDS011;4556;49.150;8.808;2023-02-21T11:28:16;7.93;;;5.37;;
9042;SDS011;4556;49.150;8.808;2023-02-21T11:30:46;8.30;;;5.30;;
9042;SDS011;4556;49.150;8.808;2023-02-21T11:33:17;8.40;;;5.37;;
9042;SDS011;4556;49.150;8.808;2023-02-21T11:35:47;8.00;;;4.60;;
9042;SDS011;4556;49.150;8.808;2023-02-21T11:38:32;6.83;;;4.20;;
9042;SDS011;4556;49.150;8.808;2023-02-21T11:41:02;8.17;;;4.73;;
9042;SDS011;4556;49.150;8.808;2023-02-21T11:43:43;8.67;;;4.73;;
9042;SDS011;4556;49.150;8.808;2023-02-21T11:46:26;8.30;;;4.90;;
9042;SDS011;4556;49.150;8.808;2023-02-21T11:49:04;8.77;;;4.90;;
9042;SDS011;4556;49.150;8.808;2023-02-21T11:51:38;7.53;;;4.93;;
9042;SDS011;4556;49.150;8.808;2023-02-21T11:54:08;9.63;;;4.70;;
9042;SDS011;4556;49.150;8.808;2023-02-21T11:56:51;11.40;;;4.67;;
9042;SDS011;4556;49.150;8.808;2023-02-21T11:59:27;7.33;;;4.60;;
9042;SDS011;4556;49.150;8.808;2023-02-21T12:02:04;8.17;;;4.50;;
9042;SDS011;4556;49.150;8.808;2023-02-21T12:07:40;7.90;;;4.97;;
9042;SDS011;4556;49.150;8.808;2023-02-21T12:10:21;7.43;;;5.07;;
9042;SDS011;4556;49.150;8.808;2023-02-21T12:13:22;7.67;;;5.10;;
9042;SDS011;4556;49.150;8.808;2023-02-21T12:15:56;8.33;;;4.90;;
9042;SDS011;4556;49.150;8.808;2023-02-21T12:18:32;10.87;;;5.00;;
9042;SDS011;4556;49.150;8.808;2023-02-21T12:21:13;8.37;;;4.87;;
9042;SDS011;4556;49.150;8.808;2023-02-21T12:24:02;6.27;;;4.43;;
9042;SDS011;4556;49.150;8.808;2023-02-21T12:26:45;7.70;;;4.93;;
9042;SDS011;4556;49.150;8.808;2023-02-21T12:29:30;8.80;;;4.73;;
9042;SDS011;4556;49.150;8.808;2023-02-21T12:32:34;8.80;;;4.93;;
9042;SDS011;4556;49.150;8.808;2023-02-21T12:35:21;6.70;;;4.40;;
9042;SDS011;4556;49.150;8.808;2023-02-21T12:38:10;7.57;;;4.03;;
9042;SDS011;4556;49.150;8.808;2023-02-21T12:40:48;8.50;;;4.50;;
9042;SDS011;4556;49.150;8.808;2023-02-21T12:43:32;6.33;;;3.70;;
9042;SDS011;4556;49.150;8.808;2023-02-21T12:46:09;5.43;;;3.13;;
9042;SDS011;4556;49.150;8.808;2023-02-21T12:48:42;7.17;;;3.30;;
9042;SDS011;4556;49.150;8.808;2023-02-21T12:51:14;5.63;;;3.07;;
9042;SDS011;4556;49.150;8.808;2023-02-21T12:53:46;4.97;;;2.60;;
9042;SDS011;4556;49.150;8.808;2023-02-21T12:56:20;4.50;;;3.20;;
9042;SDS011;4556;49.150;8.808;2023-02-21T12:58:53;4.67;;;2.90;;
9042;SDS011;4556;49.150;8.808;2023-02-21T13:01:29;6.63;;;3.40;;
9042;SDS011;4556;49.150;8.808;2023-02-21T13:04:02;4.80;;;2.70;;
9042;SDS011;4556;49.150;8.808;2023-02-21T13:06:40;5.03;;;2.67;;
9042;SDS011;4556;49.150;8.808;2023-02-21T13:09:14;6.27;;;3.10;;
9042;SDS011;4556;49.150;8.808;2023-02-21T13:11:49;5.97;;;3.53;;
9042;SDS011;4556;49.150;8.808;2023-02-21T13:14:25;5.13;;;3.70;;
9042;SDS011;4556;49.150;8.808;2023-02-21T13:16:58;4.43;;;2.80;;
9042;SDS011;4556;49.150;8.808;2023-02-21T13:19:29;3.70;;;1.63;;
9042;SDS011;4556;49.150;8.808;2023-02-21T13:22:06;3.77;;;1.67;;
9042;SDS011;4556;49.150;8.808;2023-02-21T13:25:30;4.47;;;2.50;;
9042;SDS011;4556;49.150;8.808;2023-02-21T13:28:05;3.53;;;1.70;;
9042;SDS011;4556;49.150;8.808;2023-02-21T13:30:40;3.23;;;1.67;;
9042;SDS011;4556;49.150;8.808;2023-02-21T13:33:22;3.33;;;1.73;;
9042;SDS011;4556;49.150;8.808;2023-02-21T13:35:51;5.33;;;2.30;;
9042;SDS011;4556;49.150;8.808;2023-02-21T13:38:21;3.90;;;1.80;;
9042;SDS011;4556;49.150;8.808;2023-02-21T13:40:48;3.97;;;2.30;;
9042;SDS011;4556;49.150;8.808;2023-02-21T13:43:21;4.33;;;2.30;;
9042;SDS011;4556;49.150;8.808;2023-02-21T13:45:50;4.37;;;1.90;;
9042;SDS011;4556;49.150;8.808;2023-02-21T13:48:19;4.47;;;2.10;;
9042;SDS011;4556;49.150;8.808;2023-02-21T13:50:50;3.27;;;1.97;;
9042;SDS011;4556;49.150;8.808;2023-02-21T13:53:19;4.03;;;1.90;;
9042;SDS011;4556;49.150;8.808;2023-02-21T13:58:50;4.73;;;2.40;;
9042;SDS011;4556;49.150;8.808;2023-02-21T14:01:22;3.67;;;2.03;;
9042;SDS011;4556;49.150;8.808;2023-02-21T14:07:11;3.83;;;1.87;;
9042;SDS011;4556;49.150;8.808;2023-02-21T14:09:38;4.40;;;2.20;;
9042;SDS011;4556;49.150;8.808;2023-02-21T14:12:07;3.20;;;1.97;;
9042;SDS011;4556;49.150;8.808;2023-02-21T14:14:36;3.43;;;1.77;;
9042;SDS011;4556;49.150;8.808;2023-02-21T14:17:07;3.80;;;2.10;;
9042;SDS011;4556;49.150;8.808;2023-02-21T14:19:36;2.30;;;1.60;;
9042;SDS011;4556;49.150;8.808;2023-02-21T14:22:11;4.60;;;1.80;;
9042;SDS011;4556;49.150;8.808;2023-02-21T14:24:41;2.03;;;1.73;;
9042;SDS011;4556;49.150;8.808;2023-02-21T14:27:32;3.73;;;2.00;;
9042;SDS011;4556;49.150;8.808;2023-02-21T14:30:15;4.03;;;1.87;;
9042;SDS011;4556;49.150;8.808;2023-02-21T14:33:16;4.00;;;2.00;;
9042;SDS011;4556;49.150;8.808;2023-02-21T14:35:53;2.93;;;1.90;;
9042;SDS011;4556;49.150;8.808;2023-02-21T14:38:27;4.70;;;1.83;;
9042;SDS011;4556;49.150;8.808;2023-02-21T14:41:01;3.17;;;1.83;;
9042;SDS011;4556;49.150;8.808;2023-02-21T14:43:40;4.90;;;2.07;;
9042;SDS011;4556;49.150;8.808;2023-02-21T14:46:28;3.30;;;1.83;;
9042;SDS011;4556;49.150;8.808;2023-02-21T14:49:30;3.07;;;1.63;;
9042;SDS011;4556;49.150;8.808;2023-02-21T15:01:22;5.23;;;2.00;;
9042;SDS011;4556;49.150;8.808;2023-02-21T15:04:08;4.23;;;1.70;;
9042;SDS011;4556;49.150;8.808;2023-02-21T15:06:41;4.00;;;1.80;;
9042;SDS011;4556;49.150;8.808;2023-02-21T15:09:18;2.90;;;1.83;;
9042;SDS011;4556;49.150;8.808;2023-02-21T15:11:47;3.63;;;2.13;;
9042;SDS011;4556;49.150;8.808;2023-02-21T15:14:16;3.30;;;1.80;;
9042;SDS011;4556;49.150;8.808;2023-02-21T15:16:48;3.07;;;1.70;;
9042;SDS011;4556;49.150;8.808;2023-02-21T15:19:19;3.77;;;1.80;;
9042;SDS011;4556;49.150;8.808;2023-02-21T15:22:05;3.93;;;1.60;;
9042;SDS011;4556;49.150;8.808;2023-02-21T15:24:37;4.00;;;1.90;;
9042;SDS011;4556;49.150;8.808;2023-02-21T15:27:09;3.67;;;1.70;;
9042;SDS011;4556;49.150;8.808;2023-02-21T15:29:37;5.20;;;2.03;;
9042;SDS011;4556;49.150;8.808;2023-02-21T15:32:04;4.70;;;1.87;;
9042;SDS011;4556;49.150;8.808;2023-02-21T15:34:32;3.20;;;1.80;;
9042;SDS011;4556;49.150;8.808;2023-02-21T15:37:05;3.30;;;1.60;;
9042;SDS011;4556;49.150;8.808;2023-02-21T15:39:42;4.90;;;1.77;;
9042;SDS011;4556;49.150;8.808;2023-02-21T15:42:15;3.57;;;1.60;;
9042;SDS011;4556;49.150;8.808;2023-02-21T15:44:44;4.40;;;1.90;;
9042;SDS011;4556;49.150;8.808;2023-02-21T15:47:15;3.73;;;1.80;;
9042;SDS011;4556;49.150;8.808;2023-02-21T15:49:45;2.77;;;1.57;;
9042;SDS011;4556;49.150;8.808;2023-02-21T15:52:25;4.10;;;1.60;;
9042;SDS011;4556;49.150;8.808;2023-02-21T15:57:45;5.07;;;1.93;;
9042;SDS011;4556;49.150;8.808;2023-02-21T16:00:24;14.30;;;1.90;;
9042;SDS011;4556;49.150;8.808;2023-02-21T16:02:52;4.17;;;1.70;;
9042;SDS011;4556;49.150;8.808;2023-02-21T16:05:52;4.20;;;1.70;;
9042;SDS011;4556;49.150;8.808;2023-02-21T16:08:20;5.53;;;1.80;;
9042;SDS011;4556;49.150;8.808;2023-02-21T16:10:47;3.40;;;1.67;;
9042;SDS011;4556;49.150;8.808;2023-02-21T16:13:16;4.13;;;1.80;;
9042;SDS011;4556;49.150;8.808;2023-02-21T16:15:43;3.60;;;1.80;;
9042;SDS011;4556;49.150;8.808;2023-02-21T16:18:14;3.63;;;1.80;;
9042;SDS011;4556;49.150;8.808;2023-02-21T16:20:43;3.23;;;1.50;;
9042;SDS011;4556;49.150;8.808;2023-02-21T16:23:12;3.87;;;1.70;;
9042;SDS011;4556;49.150;8.808;2023-02-21T16:25:55;4.23;;;1.30;;
9042;SDS011;4556;49.150;8.808;2023-02-21T16:28:26;3.23;;;1.57;;